sensor_id;sensor_type;location;lat;lon;timestamp;P1;durP1;ratioP1;P2;durP2;ratioP2
43457;SDS011;29046;54.184;18.680;2023-08-06T00:00:57;8.95;;;4.82;;
43457;SDS011;29046;54.184;18.680;2023-08-06T00:03:45;11.32;;;5.50;;
43457;SDS011;29046;54.184;18.680;2023-08-06T00:06:12;7.47;;;4.38;;
43457;SDS011;29046;54.184;18.680;2023-08-06T00:08:40;6.43;;;3.42;;
43457;SDS011;29046;54.184;18.680;2023-08-06T00:11:07;8.48;;;4.15;;
43457;SDS011;29046;54.184;18.680;2023-08-06T00:13:35;8.45;;;4.53;;
43457;SDS011;29046;54.184;18.680;2023-08-06T00:16:12;12.45;;;4.45;;
43457;SDS011;29046;54.184;18.680;2023-08-06T00:18:40;16.13;;;6.85;;
43457;SDS011;29046;54.184;18.680;2023-08-06T00:21:08;14.10;;;5.30;;
43457;SDS011;29046;54.184;18.680;2023-08-06T00:23:35;11.68;;;4.07;;
43457;SDS011;29046;54.184;18.680;2023-08-06T00:26:03;6.32;;;3.60;;
43457;SDS011;29046;54.184;18.680;2023-08-06T00:28:30;7.82;;;3.58;;
43457;SDS011;29046;54.184;18.680;2023-08-06T00:30:58;6.03;;;3.58;;
43457;SDS011;29046;54.184;18.680;2023-08-06T00:33:26;9.60;;;4.22;;
43457;SDS011;29046;54.184;18.680;2023-08-06T00:35:53;8.52;;;3.72;;
43457;SDS011;29046;54.184;18.680;2023-08-06T00:38:21;6.55;;;4.25;;
43457;SDS011;29046;54.184;18.680;2023-08-06T00:40:49;10.40;;;2.88;;
43457;SDS011;29046;54.184;18.680;2023-08-06T00:43:16;7.65;;;2.72;;
43457;SDS011;29046;54.184;18.680;2023-08-06T00:45:44;7.03;;;3.10;;
43457;SDS011;29046;54.184;18.680;2023-08-06T00:48:12;8.65;;;2.83;;
43457;SDS011;29046;54.184;18.680;2023-08-06T00:50:39;7.25;;;3.47;;
43457;SDS011;29046;54.184;18.680;2023-08-06T00:53:07;13.63;;;7.20;;
43457;SDS011;29046;54.184;18.680;2023-08-06T00:55:35;6.88;;;3.35;;
43457;SDS011;29046;54.184;18.680;2023-08-06T00:58:03;3.70;;;2.47;;
43457;SDS011;29046;54.184;18.680;2023-08-06T01:00:30;41.40;;;12.63;;
43457;SDS011;29046;54.184;18.680;2023-08-06T01:02:58;18.88;;;6.53;;
43457;SDS011;29046;54.184;18.680;2023-08-06T01:05:26;11.18;;;3.88;;
43457;SDS011;29046;54.184;18.680;2023-08-06T01:13:18;14.05;;;4.63;;
43457;SDS011;29046;54.184;18.680;2023-08-06T01:15:54;20.17;;;9.48;;
43457;SDS011;29046;54.184;18.680;2023-08-06T01:18:26;15.95;;;7.07;;
43457;SDS011;29046;54.184;18.680;2023-08-06T01:20:53;9.35;;;4.05;;
43457;SDS011;29046;54.184;18.680;2023-08-06T01:23:21;10.65;;;4.05;;
43457;SDS011;29046;54.184;18.680;2023-08-06T01:25:52;12.93;;;5.18;;
43457;SDS011;29046;54.184;18.680;2023-08-06T01:30:57;8.10;;;3.33;;
43457;SDS011;29046;54.184;18.680;2023-08-06T01:33:26;9.85;;;3.08;;
43457;SDS011;29046;54.184;18.680;2023-08-06T01:35:55;8.95;;;3.65;;
43457;SDS011;29046;54.184;18.680;2023-08-06T01:38:23;7.75;;;3.15;;
43457;SDS011;29046;54.184;18.680;2023-08-06T01:40:51;6.30;;;2.78;;
43457;SDS011;29046;54.184;18.680;2023-08-06T01:43:18;7.72;;;3.30;;
43457;SDS011;29046;54.184;18.680;2023-08-06T01:45:46;10.00;;;3.10;;
43457;SDS011;29046;54.184;18.680;2023-08-06T01:48:14;7.57;;;3.67;;
43457;SDS011;29046;54.184;18.680;2023-08-06T01:50:41;6.80;;;2.80;;
43457;SDS011;29046;54.184;18.680;2023-08-06T01:53:09;4.78;;;2.58;;
43457;SDS011;29046;54.184;18.680;2023-08-06T01:55:36;3.35;;;1.98;;
43457;SDS011;29046;54.184;18.680;2023-08-06T01:58:04;5.82;;;3.20;;
43457;SDS011;29046;54.184;18.680;2023-08-06T02:00:31;13.32;;;2.97;;
43457;SDS011;29046;54.184;18.680;2023-08-06T02:02:59;7.07;;;2.67;;
43457;SDS011;29046;54.184;18.680;2023-08-06T02:05:27;6.25;;;3.05;;
43457;SDS011;29046;54.184;18.680;2023-08-06T02:07:54;11.38;;;4.90;;
43457;SDS011;29046;54.184;18.680;2023-08-06T02:10:22;8.02;;;4.40;;
43457;SDS011;29046;54.184;18.680;2023-08-06T02:12:50;7.35;;;4.30;;
43457;SDS011;29046;54.184;18.680;2023-08-06T02:15:17;14.88;;;4.07;;
43457;SDS011;29046;54.184;18.680;2023-08-06T02:17:45;8.23;;;3.30;;
43457;SDS011;29046;54.184;18.680;2023-08-06T02:20:12;12.15;;;5.13;;
43457;SDS011;29046;54.184;18.680;2023-08-06T02:22:40;10.43;;;4.47;;
43457;SDS011;29046;54.184;18.680;2023-08-06T02:25:07;12.50;;;5.25;;
43457;SDS011;29046;54.184;18.680;2023-08-06T02:27:35;9.13;;;4.38;;
43457;SDS011;29046;54.184;18.680;2023-08-06T02:30:04;10.70;;;4.60;;
43457;SDS011;29046;54.184;18.680;2023-08-06T02:32:32;17.15;;;5.32;;
43457;SDS011;29046;54.184;18.680;2023-08-06T02:35:02;6.15;;;3.10;;
43457;SDS011;29046;54.184;18.680;2023-08-06T02:37:30;6.03;;;3.63;;
43457;SDS011;29046;54.184;18.680;2023-08-06T02:39:57;16.13;;;5.93;;
43457;SDS011;29046;54.184;18.680;2023-08-06T02:42:25;21.85;;;7.50;;
43457;SDS011;29046;54.184;18.680;2023-08-06T02:44:53;26.48;;;6.07;;
43457;SDS011;29046;54.184;18.680;2023-08-06T02:47:23;23.77;;;7.22;;
43457;SDS011;29046;54.184;18.680;2023-08-06T02:49:51;25.35;;;6.75;;
43457;SDS011;29046;54.184;18.680;2023-08-06T02:52:19;26.38;;;7.57;;
43457;SDS011;29046;54.184;18.680;2023-08-06T02:54:46;16.70;;;5.32;;
43457;SDS011;29046;54.184;18.680;2023-08-06T02:57:14;15.75;;;5.22;;
43457;SDS011;29046;54.184;18.680;2023-08-06T02:59:42;15.73;;;4.50;;
43457;SDS011;29046;54.184;18.680;2023-08-06T03:02:09;11.30;;;5.32;;
43457;SDS011;29046;54.184;18.680;2023-08-06T03:04:37;12.52;;;3.75;;
43457;SDS011;29046;54.184;18.680;2023-08-06T03:07:04;12.43;;;5.78;;
43457;SDS011;29046;54.184;18.680;2023-08-06T03:09:32;10.13;;;5.28;;
43457;SDS011;29046;54.184;18.680;2023-08-06T03:12:00;16.55;;;5.97;;
43457;SDS011;29046;54.184;18.680;2023-08-06T03:14:27;6.35;;;3.90;;
43457;SDS011;29046;54.184;18.680;2023-08-06T03:16:55;20.35;;;8.50;;
43457;SDS011;29046;54.184;18.680;2023-08-06T03:19:22;14.82;;;5.53;;
43457;SDS011;29046;54.184;18.680;2023-08-06T03:21:50;11.38;;;6.85;;
43457;SDS011;29046;54.184;18.680;2023-08-06T03:24:18;3.63;;;2.60;;
43457;SDS011;29046;54.184;18.680;2023-08-06T03:26:45;10.45;;;4.82;;
43457;SDS011;29046;54.184;18.680;2023-08-06T03:29:13;9.45;;;5.28;;
43457;SDS011;29046;54.184;18.680;2023-08-06T03:31:41;12.55;;;6.90;;
43457;SDS011;29046;54.184;18.680;2023-08-06T03:34:08;12.73;;;7.13;;
43457;SDS011;29046;54.184;18.680;2023-08-06T03:36:36;11.57;;;6.38;;
43457;SDS011;29046;54.184;18.680;2023-08-06T03:39:04;11.55;;;6.88;;
43457;SDS011;29046;54.184;18.680;2023-08-06T03:41:31;12.18;;;6.03;;
43457;SDS011;29046;54.184;18.680;2023-08-06T03:43:59;13.05;;;6.45;;
43457;SDS011;29046;54.184;18.680;2023-08-06T03:46:29;15.77;;;6.28;;
43457;SDS011;29046;54.184;18.680;2023-08-06T03:49:00;11.65;;;5.75;;
43457;SDS011;29046;54.184;18.680;2023-08-06T03:51:28;11.05;;;3.45;;
43457;SDS011;29046;54.184;18.680;2023-08-06T03:53:55;9.93;;;5.57;;
43457;SDS011;29046;54.184;18.680;2023-08-06T03:56:23;11.77;;;5.30;;
43457;SDS011;29046;54.184;18.680;2023-08-06T03:58:50;14.35;;;6.40;;
43457;SDS011;29046;54.184;18.680;2023-08-06T04:01:18;10.68;;;5.45;;
43457;SDS011;29046;54.184;18.680;2023-08-06T04:03:45;9.38;;;6.15;;
43457;SDS011;29046;54.184;18.680;2023-08-06T04:06:13;14.02;;;6.10;;
43457;SDS011;29046;54.184;18.680;2023-08-06T04:08:41;14.52;;;5.90;;
43457;SDS011;29046;54.184;18.680;2023-08-06T04:11:09;13.45;;;5.32;;
43457;SDS011;29046;54.184;18.680;2023-08-06T04:13:36;8.20;;;4.53;;
43457;SDS011;29046;54.184;18.680;2023-08-06T04:16:04;6.25;;;3.92;;
43457;SDS011;29046;54.184;18.680;2023-08-06T04:18:31;12.45;;;5.88;;
43457;SDS011;29046;54.184;18.680;2023-08-06T04:20:59;17.40;;;5.50;;
43457;SDS011;29046;54.184;18.680;2023-08-06T04:23:28;12.73;;;4.90;;
43457;SDS011;29046;54.184;18.680;2023-08-06T04:25:56;8.80;;;4.47;;
43457;SDS011;29046;54.184;18.680;2023-08-06T04:28:24;13.32;;;5.43;;
43457;SDS011;29046;54.184;18.680;2023-08-06T04:30:51;6.93;;;3.60;;
43457;SDS011;29046;54.184;18.680;2023-08-06T04:33:20;9.10;;;4.15;;
43457;SDS011;29046;54.184;18.680;2023-08-06T04:35:53;10.23;;;4.47;;
43457;SDS011;29046;54.184;18.680;2023-08-06T04:38:23;15.95;;;5.68;;
43457;SDS011;29046;54.184;18.680;2023-08-06T04:40:52;13.45;;;3.75;;
43457;SDS011;29046;54.184;18.680;2023-08-06T04:43:19;10.13;;;4.72;;
43457;SDS011;29046;54.184;18.680;2023-08-06T04:45:48;16.80;;;6.00;;
43457;SDS011;29046;54.184;18.680;2023-08-06T04:48:16;8.82;;;4.28;;
43457;SDS011;29046;54.184;18.680;2023-08-06T04:50:44;8.55;;;4.55;;
43457;SDS011;29046;54.184;18.680;2023-08-06T04:53:12;7.85;;;4.60;;
43457;SDS011;29046;54.184;18.680;2023-08-06T04:55:40;7.28;;;3.42;;
43457;SDS011;29046;54.184;18.680;2023-08-06T04:58:08;11.98;;;5.50;;
43457;SDS011;29046;54.184;18.680;2023-08-06T05:00:36;8.45;;;4.07;;
43457;SDS011;29046;54.184;18.680;2023-08-06T05:03:04;10.85;;;5.53;;
43457;SDS011;29046;54.184;18.680;2023-08-06T05:05:31;8.50;;;4.20;;
43457;SDS011;29046;54.184;18.680;2023-08-06T05:07:59;15.65;;;5.38;;
43457;SDS011;29046;54.184;18.680;2023-08-06T05:10:27;13.48;;;5.82;;
43457;SDS011;29046;54.184;18.680;2023-08-06T05:12:54;13.23;;;5.05;;
43457;SDS011;29046;54.184;18.680;2023-08-06T05:15:23;8.20;;;4.13;;
43457;SDS011;29046;54.184;18.680;2023-08-06T05:17:51;14.90;;;5.05;;
43457;SDS011;29046;54.184;18.680;2023-08-06T05:20:20;13.18;;;6.03;;
43457;SDS011;29046;54.184;18.680;2023-08-06T05:22:47;12.43;;;5.50;;
43457;SDS011;29046;54.184;18.680;2023-08-06T05:25:15;13.95;;;4.18;;
43457;SDS011;29046;54.184;18.680;2023-08-06T05:27:42;10.15;;;4.10;;
43457;SDS011;29046;54.184;18.680;2023-08-06T05:30:10;17.15;;;2.92;;
43457;SDS011;29046;54.184;18.680;2023-08-06T05:32:38;14.15;;;4.68;;
43457;SDS011;29046;54.184;18.680;2023-08-06T05:35:06;10.85;;;4.90;;
43457;SDS011;29046;54.184;18.680;2023-08-06T05:37:33;16.02;;;5.03;;
43457;SDS011;29046;54.184;18.680;2023-08-06T05:40:01;8.73;;;4.35;;
43457;SDS011;29046;54.184;18.680;2023-08-06T05:42:30;8.55;;;5.13;;
43457;SDS011;29046;54.184;18.680;2023-08-06T05:44:58;12.32;;;5.43;;
43457;SDS011;29046;54.184;18.680;2023-08-06T05:47:25;15.55;;;6.03;;
43457;SDS011;29046;54.184;18.680;2023-08-06T05:49:53;12.15;;;5.78;;
43457;SDS011;29046;54.184;18.680;2023-08-06T05:52:20;16.42;;;5.80;;
43457;SDS011;29046;54.184;18.680;2023-08-06T05:54:48;13.52;;;5.43;;
43457;SDS011;29046;54.184;18.680;2023-08-06T05:57:16;11.70;;;5.18;;
43457;SDS011;29046;54.184;18.680;2023-08-06T05:59:44;11.93;;;5.40;;
43457;SDS011;29046;54.184;18.680;2023-08-06T06:02:12;13.10;;;5.65;;
43457;SDS011;29046;54.184;18.680;2023-08-06T06:04:40;15.10;;;5.90;;
43457;SDS011;29046;54.184;18.680;2023-08-06T06:07:08;9.98;;;4.35;;
43457;SDS011;29046;54.184;18.680;2023-08-06T06:09:35;9.40;;;5.10;;
43457;SDS011;29046;54.184;18.680;2023-08-06T06:12:03;11.93;;;5.43;;
43457;SDS011;29046;54.184;18.680;2023-08-06T06:14:31;6.68;;;3.55;;
43457;SDS011;29046;54.184;18.680;2023-08-06T06:16:58;9.18;;;4.53;;
43457;SDS011;29046;54.184;18.680;2023-08-06T06:19:29;14.63;;;4.70;;
43457;SDS011;29046;54.184;18.680;2023-08-06T06:21:56;10.60;;;4.40;;
43457;SDS011;29046;54.184;18.680;2023-08-06T06:24:24;11.48;;;4.95;;
43457;SDS011;29046;54.184;18.680;2023-08-06T06:26:52;11.93;;;5.05;;
43457;SDS011;29046;54.184;18.680;2023-08-06T06:29:19;17.10;;;5.22;;
43457;SDS011;29046;54.184;18.680;2023-08-06T06:31:47;12.15;;;5.28;;
43457;SDS011;29046;54.184;18.680;2023-08-06T06:34:15;17.02;;;5.65;;
43457;SDS011;29046;54.184;18.680;2023-08-06T06:36:42;10.13;;;3.60;;
43457;SDS011;29046;54.184;18.680;2023-08-06T06:39:10;15.15;;;5.30;;
43457;SDS011;29046;54.184;18.680;2023-08-06T06:41:37;11.13;;;3.80;;
43457;SDS011;29046;54.184;18.680;2023-08-06T06:44:05;17.10;;;5.00;;
43457;SDS011;29046;54.184;18.680;2023-08-06T06:46:33;14.57;;;5.18;;
43457;SDS011;29046;54.184;18.680;2023-08-06T06:49:00;14.20;;;5.07;;
43457;SDS011;29046;54.184;18.680;2023-08-06T06:51:28;13.38;;;4.90;;
43457;SDS011;29046;54.184;18.680;2023-08-06T06:53:55;8.75;;;4.68;;
43457;SDS011;29046;54.184;18.680;2023-08-06T06:56:23;18.10;;;5.30;;
43457;SDS011;29046;54.184;18.680;2023-08-06T06:58:51;14.60;;;4.82;;
43457;SDS011;29046;54.184;18.680;2023-08-06T07:01:18;11.75;;;4.68;;
43457;SDS011;29046;54.184;18.680;2023-08-06T07:03:46;11.23;;;4.45;;
43457;SDS011;29046;54.184;18.680;2023-08-06T07:06:13;12.70;;;4.72;;
43457;SDS011;29046;54.184;18.680;2023-08-06T07:08:42;14.05;;;4.28;;
43457;SDS011;29046;54.184;18.680;2023-08-06T07:11:09;11.57;;;4.40;;
43457;SDS011;29046;54.184;18.680;2023-08-06T07:13:37;14.90;;;4.80;;
43457;SDS011;29046;54.184;18.680;2023-08-06T07:16:04;11.73;;;4.85;;
43457;SDS011;29046;54.184;18.680;2023-08-06T07:18:36;8.15;;;3.55;;
43457;SDS011;29046;54.184;18.680;2023-08-06T07:21:03;7.57;;;3.25;;
43457;SDS011;29046;54.184;18.680;2023-08-06T07:23:31;7.80;;;3.65;;
43457;SDS011;29046;54.184;18.680;2023-08-06T07:25:58;6.47;;;3.88;;
43457;SDS011;29046;54.184;18.680;2023-08-06T07:28:26;7.63;;;3.97;;
43457;SDS011;29046;54.184;18.680;2023-08-06T07:30:53;10.25;;;4.18;;
43457;SDS011;29046;54.184;18.680;2023-08-06T07:33:21;6.25;;;3.45;;
43457;SDS011;29046;54.184;18.680;2023-08-06T07:35:49;7.70;;;3.25;;
43457;SDS011;29046;54.184;18.680;2023-08-06T07:38:16;4.75;;;3.75;;
43457;SDS011;29046;54.184;18.680;2023-08-06T07:40:44;7.45;;;2.95;;
43457;SDS011;29046;54.184;18.680;2023-08-06T07:43:12;9.65;;;3.72;;
43457;SDS011;29046;54.184;18.680;2023-08-06T07:45:39;5.30;;;4.00;;
43457;SDS011;29046;54.184;18.680;2023-08-06T07:48:07;12.07;;;4.53;;
43457;SDS011;29046;54.184;18.680;2023-08-06T07:50:35;8.32;;;3.67;;
43457;SDS011;29046;54.184;18.680;2023-08-06T07:53:02;8.40;;;3.95;;
43457;SDS011;29046;54.184;18.680;2023-08-06T07:55:30;7.05;;;3.88;;
43457;SDS011;29046;54.184;18.680;2023-08-06T07:57:57;5.70;;;4.25;;
43457;SDS011;29046;54.184;18.680;2023-08-06T08:00:25;10.95;;;4.40;;
43457;SDS011;29046;54.184;18.680;2023-08-06T08:02:53;6.53;;;3.50;;
43457;SDS011;29046;54.184;18.680;2023-08-06T08:05:20;7.13;;;3.78;;
43457;SDS011;29046;54.184;18.680;2023-08-06T08:07:48;6.32;;;4.32;;
43457;SDS011;29046;54.184;18.680;2023-08-06T08:10:16;6.90;;;3.50;;
43457;SDS011;29046;54.184;18.680;2023-08-06T08:12:44;4.60;;;3.78;;
43457;SDS011;29046;54.184;18.680;2023-08-06T08:15:14;4.85;;;3.95;;
43457;SDS011;29046;54.184;18.680;2023-08-06T08:17:41;8.02;;;3.58;;
43457;SDS011;29046;54.184;18.680;2023-08-06T08:20:09;6.30;;;4.13;;
43457;SDS011;29046;54.184;18.680;2023-08-06T08:22:37;6.80;;;3.70;;
43457;SDS011;29046;54.184;18.680;2023-08-06T08:25:04;3.85;;;3.42;;
43457;SDS011;29046;54.184;18.680;2023-08-06T08:27:32;7.10;;;3.83;;
43457;SDS011;29046;54.184;18.680;2023-08-06T08:29:59;4.03;;;3.13;;
43457;SDS011;29046;54.184;18.680;2023-08-06T08:32:27;7.32;;;3.55;;
43457;SDS011;29046;54.184;18.680;2023-08-06T08:34:55;6.00;;;4.07;;
43457;SDS011;29046;54.184;18.680;2023-08-06T08:37:23;6.50;;;3.28;;
43457;SDS011;29046;54.184;18.680;2023-08-06T08:39:50;6.55;;;4.05;;
43457;SDS011;29046;54.184;18.680;2023-08-06T08:42:19;4.82;;;4.05;;
43457;SDS011;29046;54.184;18.680;2023-08-06T08:44:46;7.70;;;4.03;;
43457;SDS011;29046;54.184;18.680;2023-08-06T08:47:14;10.27;;;3.60;;
43457;SDS011;29046;54.184;18.680;2023-08-06T08:49:42;5.65;;;4.10;;
43457;SDS011;29046;54.184;18.680;2023-08-06T08:52:10;7.25;;;4.10;;
43457;SDS011;29046;54.184;18.680;2023-08-06T08:54:39;10.43;;;4.70;;
43457;SDS011;29046;54.184;18.680;2023-08-06T08:57:07;9.02;;;5.13;;
43457;SDS011;29046;54.184;18.680;2023-08-06T08:59:34;6.30;;;4.90;;
43457;SDS011;29046;54.184;18.680;2023-08-06T09:02:03;5.68;;;4.22;;
43457;SDS011;29046;54.184;18.680;2023-08-06T09:04:31;7.90;;;4.57;;
43457;SDS011;29046;54.184;18.680;2023-08-06T09:07:00;7.40;;;5.28;;
43457;SDS011;29046;54.184;18.680;2023-08-06T09:09:30;6.22;;;4.53;;
43457;SDS011;29046;54.184;18.680;2023-08-06T09:12:02;7.50;;;4.85;;
43457;SDS011;29046;54.184;18.680;2023-08-06T09:14:33;9.07;;;5.35;;
43457;SDS011;29046;54.184;18.680;2023-08-06T09:17:00;8.70;;;5.10;;
43457;SDS011;29046;54.184;18.680;2023-08-06T09:19:28;7.32;;;4.78;;
43457;SDS011;29046;54.184;18.680;2023-08-06T09:21:56;8.85;;;4.93;;
43457;SDS011;29046;54.184;18.680;2023-08-06T09:24:23;10.13;;;5.38;;
43457;SDS011;29046;54.184;18.680;2023-08-06T09:26:52;10.32;;;4.97;;
43457;SDS011;29046;54.184;18.680;2023-08-06T09:29:20;9.07;;;5.15;;
43457;SDS011;29046;54.184;18.680;2023-08-06T09:31:49;6.07;;;5.00;;
43457;SDS011;29046;54.184;18.680;2023-08-06T09:34:21;7.43;;;4.88;;
43457;SDS011;29046;54.184;18.680;2023-08-06T09:36:50;6.47;;;5.10;;
43457;SDS011;29046;54.184;18.680;2023-08-06T09:39:18;7.25;;;4.85;;
43457;SDS011;29046;54.184;18.680;2023-08-06T09:41:46;6.82;;;4.45;;
43457;SDS011;29046;54.184;18.680;2023-08-06T09:44:18;7.40;;;4.60;;
43457;SDS011;29046;54.184;18.680;2023-08-06T09:49:17;7.63;;;4.60;;
43457;SDS011;29046;54.184;18.680;2023-08-06T09:51:49;6.55;;;4.72;;
43457;SDS011;29046;54.184;18.680;2023-08-06T09:54:18;9.75;;;5.60;;
43457;SDS011;29046;54.184;18.680;2023-08-06T09:56:53;7.20;;;4.80;;
43457;SDS011;29046;54.184;18.680;2023-08-06T09:59:21;8.75;;;5.13;;
43457;SDS011;29046;54.184;18.680;2023-08-06T10:01:50;11.18;;;5.18;;
43457;SDS011;29046;54.184;18.680;2023-08-06T10:04:19;8.98;;;5.82;;
43457;SDS011;29046;54.184;18.680;2023-08-06T10:06:52;8.68;;;5.75;;
43457;SDS011;29046;54.184;18.680;2023-08-06T10:09:19;8.43;;;6.13;;
43457;SDS011;29046;54.184;18.680;2023-08-06T10:11:50;7.15;;;4.85;;
43457;SDS011;29046;54.184;18.680;2023-08-06T10:14:19;8.45;;;6.13;;
43457;SDS011;29046;54.184;18.680;2023-08-06T10:16:48;9.70;;;6.72;;
43457;SDS011;29046;54.184;18.680;2023-08-06T10:19:16;8.82;;;7.00;;
43457;SDS011;29046;54.184;18.680;2023-08-06T10:24:45;12.02;;;7.10;;
43457;SDS011;29046;54.184;18.680;2023-08-06T10:27:13;14.57;;;6.78;;
43457;SDS011;29046;54.184;18.680;2023-08-06T10:29:40;8.73;;;5.15;;
43457;SDS011;29046;54.184;18.680;2023-08-06T10:32:08;6.72;;;5.38;;
43457;SDS011;29046;54.184;18.680;2023-08-06T10:35:27;10.48;;;6.45;;
43457;SDS011;29046;54.184;18.680;2023-08-06T10:37:36;8.70;;;5.85;;
43457;SDS011;29046;54.184;18.680;2023-08-06T10:40:05;10.38;;;6.03;;
43457;SDS011;29046;54.184;18.680;2023-08-06T10:42:34;9.00;;;6.25;;
43457;SDS011;29046;54.184;18.680;2023-08-06T10:45:13;8.48;;;5.85;;
43457;SDS011;29046;54.184;18.680;2023-08-06T10:47:42;16.17;;;5.93;;
43457;SDS011;29046;54.184;18.680;2023-08-06T10:50:14;7.20;;;6.50;;
43457;SDS011;29046;54.184;18.680;2023-08-06T10:52:46;7.85;;;6.88;;
43457;SDS011;29046;54.184;18.680;2023-08-06T10:55:14;8.18;;;6.05;;
43457;SDS011;29046;54.184;18.680;2023-08-06T10:57:49;8.20;;;6.13;;
43457;SDS011;29046;54.184;18.680;2023-08-06T11:00:17;7.90;;;6.38;;
43457;SDS011;29046;54.184;18.680;2023-08-06T11:02:46;9.98;;;6.75;;
43457;SDS011;29046;54.184;18.680;2023-08-06T11:05:14;8.85;;;6.68;;
43457;SDS011;29046;54.184;18.680;2023-08-06T11:07:42;8.52;;;6.55;;
43457;SDS011;29046;54.184;18.680;2023-08-06T11:10:11;8.48;;;7.25;;
43457;SDS011;29046;54.184;18.680;2023-08-06T11:12:39;8.73;;;6.90;;
43457;SDS011;29046;54.184;18.680;2023-08-06T11:15:07;8.05;;;6.43;;
43457;SDS011;29046;54.184;18.680;2023-08-06T11:17:35;7.07;;;6.38;;
43457;SDS011;29046;54.184;18.680;2023-08-06T11:20:03;12.15;;;7.35;;
43457;SDS011;29046;54.184;18.680;2023-08-06T11:22:31;8.60;;;6.65;;
43457;SDS011;29046;54.184;18.680;2023-08-06T11:24:59;8.43;;;6.72;;
43457;SDS011;29046;54.184;18.680;2023-08-06T11:27:30;8.35;;;6.72;;
43457;SDS011;29046;54.184;18.680;2023-08-06T11:29:57;11.20;;;6.88;;
43457;SDS011;29046;54.184;18.680;2023-08-06T11:32:25;9.77;;;7.63;;
43457;SDS011;29046;54.184;18.680;2023-08-06T11:34:54;11.07;;;7.68;;
43457;SDS011;29046;54.184;18.680;2023-08-06T11:37:22;9.80;;;7.97;;
43457;SDS011;29046;54.184;18.680;2023-08-06T11:39:53;9.73;;;7.82;;
43457;SDS011;29046;54.184;18.680;2023-08-06T11:42:20;9.20;;;7.75;;
43457;SDS011;29046;54.184;18.680;2023-08-06T11:44:48;8.02;;;6.97;;
43457;SDS011;29046;54.184;18.680;2023-08-06T11:47:17;12.60;;;8.35;;
43457;SDS011;29046;54.184;18.680;2023-08-06T11:49:46;9.52;;;7.40;;
43457;SDS011;29046;54.184;18.680;2023-08-06T11:52:21;8.65;;;6.63;;
43457;SDS011;29046;54.184;18.680;2023-08-06T11:55:03;10.50;;;6.93;;
43457;SDS011;29046;54.184;18.680;2023-08-06T11:57:37;8.95;;;7.10;;
43457;SDS011;29046;54.184;18.680;2023-08-06T12:00:07;7.57;;;6.68;;
43457;SDS011;29046;54.184;18.680;2023-08-06T12:02:35;7.70;;;6.97;;
43457;SDS011;29046;54.184;18.680;2023-08-06T12:05:14;10.52;;;6.88;;
43457;SDS011;29046;54.184;18.680;2023-08-06T12:07:47;10.40;;;7.05;;
43457;SDS011;29046;54.184;18.680;2023-08-06T12:10:15;8.93;;;7.70;;
43457;SDS011;29046;54.184;18.680;2023-08-06T12:12:43;11.95;;;7.72;;
43457;SDS011;29046;54.184;18.680;2023-08-06T12:15:11;10.00;;;7.43;;
43457;SDS011;29046;54.184;18.680;2023-08-06T12:17:39;8.95;;;8.05;;
43457;SDS011;29046;54.184;18.680;2023-08-06T12:20:06;11.88;;;8.75;;
43457;SDS011;29046;54.184;18.680;2023-08-06T12:22:35;9.23;;;7.55;;
43457;SDS011;29046;54.184;18.680;2023-08-06T12:27:39;8.45;;;7.55;;
43457;SDS011;29046;54.184;18.680;2023-08-06T12:30:08;11.20;;;9.00;;
43457;SDS011;29046;54.184;18.680;2023-08-06T12:32:36;12.93;;;8.25;;
43457;SDS011;29046;54.184;18.680;2023-08-06T12:35:03;8.85;;;7.68;;
43457;SDS011;29046;54.184;18.680;2023-08-06T12:37:34;10.15;;;8.43;;
43457;SDS011;29046;54.184;18.680;2023-08-06T12:40:01;8.93;;;8.13;;
43457;SDS011;29046;54.184;18.680;2023-08-06T12:42:52;11.55;;;8.52;;
43457;SDS011;29046;54.184;18.680;2023-08-06T12:45:20;12.60;;;8.52;;
43457;SDS011;29046;54.184;18.680;2023-08-06T12:47:48;9.57;;;8.68;;
43457;SDS011;29046;54.184;18.680;2023-08-06T12:50:16;9.43;;;8.52;;
43457;SDS011;29046;54.184;18.680;2023-08-06T12:52:45;10.30;;;8.70;;
43457;SDS011;29046;54.184;18.680;2023-08-06T12:55:12;9.63;;;8.63;;
43457;SDS011;29046;54.184;18.680;2023-08-06T12:57:40;15.50;;;9.23;;
43457;SDS011;29046;54.184;18.680;2023-08-06T13:00:10;8.82;;;7.93;;
43457;SDS011;29046;54.184;18.680;2023-08-06T13:02:39;10.05;;;8.23;;
43457;SDS011;29046;54.184;18.680;2023-08-06T13:05:06;9.90;;;7.68;;
43457;SDS011;29046;54.184;18.680;2023-08-06T13:07:35;10.05;;;7.28;;
43457;SDS011;29046;54.184;18.680;2023-08-06T13:10:03;9.35;;;7.45;;
43457;SDS011;29046;54.184;18.680;2023-08-06T13:12:31;10.32;;;8.15;;
43457;SDS011;29046;54.184;18.680;2023-08-06T13:14:58;9.82;;;8.15;;
43457;SDS011;29046;54.184;18.680;2023-08-06T13:17:26;11.30;;;8.20;;
43457;SDS011;29046;54.184;18.680;2023-08-06T13:19:54;9.82;;;8.07;;
43457;SDS011;29046;54.184;18.680;2023-08-06T13:22:21;9.38;;;8.13;;
43457;SDS011;29046;54.184;18.680;2023-08-06T13:24:49;9.02;;;7.45;;
43457;SDS011;29046;54.184;18.680;2023-08-06T13:27:16;12.80;;;8.05;;
43457;SDS011;29046;54.184;18.680;2023-08-06T13:29:44;9.88;;;7.63;;
43457;SDS011;29046;54.184;18.680;2023-08-06T13:32:11;13.13;;;7.97;;
43457;SDS011;29046;54.184;18.680;2023-08-06T13:34:39;9.82;;;8.65;;
43457;SDS011;29046;54.184;18.680;2023-08-06T13:37:07;9.07;;;7.85;;
43457;SDS011;29046;54.184;18.680;2023-08-06T13:39:34;8.40;;;7.57;;
43457;SDS011;29046;54.184;18.680;2023-08-06T13:42:02;12.48;;;8.48;;
43457;SDS011;29046;54.184;18.680;2023-08-06T13:44:29;10.60;;;8.80;;
43457;SDS011;29046;54.184;18.680;2023-08-06T13:46:57;12.30;;;8.27;;
43457;SDS011;29046;54.184;18.680;2023-08-06T13:49:24;18.27;;;12.90;;
43457;SDS011;29046;54.184;18.680;2023-08-06T13:51:52;11.77;;;10.63;;
43457;SDS011;29046;54.184;18.680;2023-08-06T13:54:20;12.60;;;10.00;;
43457;SDS011;29046;54.184;18.680;2023-08-06T13:56:48;12.20;;;8.48;;
43457;SDS011;29046;54.184;18.680;2023-08-06T13:59:16;14.73;;;9.90;;
43457;SDS011;29046;54.184;18.680;2023-08-06T14:01:46;17.75;;;12.88;;
43457;SDS011;29046;54.184;18.680;2023-08-06T14:06:48;16.65;;;12.23;;
43457;SDS011;29046;54.184;18.680;2023-08-06T14:09:15;18.30;;;11.60;;
43457;SDS011;29046;54.184;18.680;2023-08-06T14:11:45;19.05;;;11.65;;
43457;SDS011;29046;54.184;18.680;2023-08-06T14:14:13;14.63;;;10.63;;
43457;SDS011;29046;54.184;18.680;2023-08-06T14:16:40;19.05;;;11.20;;
43457;SDS011;29046;54.184;18.680;2023-08-06T14:19:08;22.45;;;12.45;;
43457;SDS011;29046;54.184;18.680;2023-08-06T14:21:36;11.93;;;8.27;;
43457;SDS011;29046;54.184;18.680;2023-08-06T14:24:03;12.90;;;10.02;;
43457;SDS011;29046;54.184;18.680;2023-08-06T14:26:31;10.05;;;8.95;;
43457;SDS011;29046;54.184;18.680;2023-08-06T14:28:59;18.30;;;12.48;;
43457;SDS011;29046;54.184;18.680;2023-08-06T14:31:26;21.42;;;13.55;;
43457;SDS011;29046;54.184;18.680;2023-08-06T14:33:54;17.20;;;11.55;;
43457;SDS011;29046;54.184;18.680;2023-08-06T14:36:21;13.38;;;10.65;;
43457;SDS011;29046;54.184;18.680;2023-08-06T14:38:49;11.38;;;10.15;;
43457;SDS011;29046;54.184;18.680;2023-08-06T14:41:26;12.57;;;10.60;;
43457;SDS011;29046;54.184;18.680;2023-08-06T14:43:54;13.10;;;11.80;;
43457;SDS011;29046;54.184;18.680;2023-08-06T14:46:21;12.88;;;11.68;;
43457;SDS011;29046;54.184;18.680;2023-08-06T14:48:49;12.85;;;11.45;;
43457;SDS011;29046;54.184;18.680;2023-08-06T14:51:17;13.50;;;12.10;;